createdAt,value
2024-04-01T04:46:04.848Z,979.89
2024-04-01T04:47:06.215Z,979.90
2024-04-01T04:48:07.560Z,979.81
2024-04-01T04:49:08.897Z,979.79
2024-04-01T04:50:10.249Z,979.74
2024-04-01T04:51:12.391Z,979.73
2024-04-01T04:52:13.695Z,979.74
2024-04-01T04:53:15.084Z,979.74
2024-04-01T04:54:16.445Z,979.77
2024-04-01T04:55:17.844Z,979.86
2024-04-01T04:56:19.202Z,980.00
2024-04-01T04:57:20.586Z,980.08
2024-04-01T04:58:21.962Z,980.18
2024-04-01T04:59:23.318Z,980.17
2024-04-01T05:00:24.652Z,980.08
2024-04-01T05:01:26.061Z,980.04
2024-04-01T05:02:27.385Z,979.95
2024-04-01T05:03:28.766Z,979.88
2024-04-01T05:04:30.186Z,979.77
2024-04-01T05:05:31.507Z,979.79
2024-04-01T05:06:32.869Z,979.77
2024-04-01T05:07:34.288Z,979.82
2024-04-01T05:08:35.618Z,979.85
2024-04-01T05:09:36.977Z,979.74
2024-04-01T05:10:38.313Z,979.72
2024-04-01T05:11:39.678Z,979.74
2024-04-01T05:12:41.030Z,979.80
2024-04-01T05:13:42.400Z,979.99
2024-04-01T05:14:43.750Z,980.02
2024-04-01T05:15:45.122Z,980.00
2024-04-01T05:16:46.487Z,980.05
2024-04-01T05:17:47.850Z,980.01
2024-04-01T05:18:49.246Z,980.04
2024-04-01T05:19:50.620Z,980.00
2024-04-01T05:20:51.963Z,979.96
2024-04-01T05:21:53.315Z,979.98
2024-04-01T05:22:54.671Z,980.01
2024-04-01T05:23:56.031Z,980.06
2024-04-01T05:24:57.373Z,980.10
2024-04-01T05:25:58.742Z,980.17
2024-04-01T05:27:00.113Z,980.26
2024-04-01T05:28:01.458Z,980.33
2024-04-01T05:29:05.891Z,980.43
2024-04-01T05:30:04.116Z,980.51
2024-04-01T05:31:05.470Z,980.56
2024-04-01T05:32:06.815Z,980.56
2024-04-01T05:33:08.181Z,980.56
2024-04-01T05:34:09.572Z,980.54
2024-04-01T05:35:10.948Z,980.56
2024-04-01T05:36:12.287Z,980.57
2024-04-01T05:37:13.627Z,980.55
2024-04-01T05:38:14.987Z,980.48
2024-04-01T05:39:16.389Z,980.44
2024-04-01T05:40:17.750Z,980.39
2024-04-01T05:41:19.163Z,980.39
2024-04-01T05:42:20.542Z,980.43
2024-04-01T05:43:21.882Z,980.39
2024-04-01T05:44:23.240Z,980.32
2024-04-01T05:45:24.610Z,980.22
2024-04-01T05:46:25.953Z,980.16
2024-04-01T05:47:27.303Z,980.18
2024-04-01T05:48:28.643Z,980.22
2024-04-01T05:49:30.042Z,980.23
2024-04-01T05:50:31.360Z,980.22
2024-04-01T05:51:32.738Z,980.14
2024-04-01T05:52:34.150Z,980.13
2024-04-01T05:53:35.452Z,980.07
2024-04-01T05:54:36.825Z,980.07
2024-04-01T05:55:38.171Z,980.05
2024-04-01T05:56:39.529Z,980.00
2024-04-01T05:57:40.896Z,979.96
2024-04-01T05:58:42.226Z,979.94
2024-04-01T05:59:43.597Z,979.92
2024-04-01T06:00:44.954Z,979.89
2024-04-01T06:01:46.289Z,979.89
2024-04-01T06:02:47.643Z,979.87
2024-04-01T06:03:48.972Z,979.76
2024-04-01T06:04:50.347Z,979.74
2024-04-01T06:05:51.698Z,979.71
2024-04-01T06:06:53.072Z,979.70
2024-04-01T06:07:54.445Z,979.73
2024-04-01T06:08:55.810Z,979.72
2024-04-01T06:09:57.206Z,979.67
2024-04-01T06:10:58.564Z,979.69
2024-04-01T06:11:59.913Z,979.66
2024-04-01T06:13:01.279Z,979.70
2024-04-01T06:14:02.612Z,979.77
2024-04-01T06:15:03.971Z,979.77
2024-04-01T06:16:05.320Z,979.83
2024-04-01T06:17:06.700Z,979.74
2024-04-01T06:18:08.059Z,979.57
2024-04-01T06:19:09.394Z,979.50
2024-04-01T06:20:10.777Z,979.46
2024-04-01T06:21:12.137Z,979.52
2024-04-01T06:22:13.520Z,979.63
2024-04-01T06:23:14.836Z,979.72
2024-04-01T06:24:16.184Z,979.70
2024-04-01T06:25:17.557Z,979.69
2024-04-01T06:26:18.914Z,979.63
2024-04-01T06:27:20.266Z,979.59
2024-04-01T06:28:21.617Z,979.51
2024-04-01T06:29:22.986Z,979.55
2024-04-01T06:30:24.342Z,979.52
2024-04-01T06:31:25.697Z,979.43
2024-04-01T06:32:27.043Z,979.46
2024-04-01T06:33:28.393Z,979.49
2024-04-01T06:34:29.839Z,979.57
2024-04-01T06:35:31.752Z,979.58
2024-04-01T06:36:32.687Z,979.55
2024-04-01T06:37:34.087Z,979.53
2024-04-01T06:38:35.415Z,979.51
2024-04-01T06:39:36.782Z,979.47
2024-04-01T06:40:38.156Z,979.40
2024-04-01T06:41:39.536Z,979.41
2024-04-01T06:42:40.905Z,979.35
2024-04-01T06:43:42.233Z,979.31
2024-04-01T06:44:43.579Z,979.22
2024-04-01T06:45:44.944Z,979.13
2024-04-01T06:46:46.315Z,979.08
2024-04-01T06:47:47.712Z,978.99
2024-04-01T06:48:49.050Z,978.98
2024-04-01T06:49:50.409Z,978.92
2024-04-01T06:50:51.767Z,978.94
2024-04-01T06:51:53.115Z,979.00
2024-04-01T06:52:54.457Z,979.05
2024-04-01T06:53:55.799Z,979.05
2024-04-01T06:54:57.172Z,979.04
2024-04-01T06:55:58.552Z,978.92
2024-04-01T06:56:59.903Z,978.79
2024-04-01T06:58:01.251Z,978.72
2024-04-01T06:59:02.601Z,978.67
2024-04-01T07:00:03.979Z,978.67
2024-04-01T07:01:05.340Z,978.60
2024-04-01T07:02:06.690Z,978.60
2024-04-01T07:03:08.054Z,978.63
2024-04-01T07:04:09.400Z,978.72
2024-04-01T07:05:10.773Z,978.73
2024-04-01T07:06:12.128Z,978.77
2024-04-01T07:07:13.480Z,978.72
2024-04-01T07:08:14.823Z,978.78
2024-04-01T07:09:16.192Z,978.77
2024-04-01T07:10:20.516Z,978.82
2024-04-01T07:11:18.924Z,978.78
2024-04-01T07:12:20.245Z,978.81
2024-04-01T07:13:21.598Z,978.85
2024-04-01T07:14:22.918Z,978.88
2024-04-01T07:15:24.273Z,978.85
2024-04-01T07:16:25.656Z,978.85
2024-04-01T07:17:27.014Z,978.89
2024-04-01T07:18:28.356Z,979.00
2024-04-01T07:19:29.757Z,979.12
2024-04-01T07:20:31.093Z,979.09
2024-04-01T07:21:32.526Z,979.02
2024-04-01T07:22:33.842Z,979.01
2024-04-01T07:23:35.188Z,979.08
2024-04-01T07:24:36.563Z,979.13
2024-04-01T07:25:37.937Z,979.19
2024-04-01T07:26:39.308Z,979.21
2024-04-01T07:27:40.686Z,979.26
2024-04-01T07:28:42.074Z,979.28
2024-04-01T07:29:43.428Z,979.35
2024-04-01T07:30:44.774Z,979.28
2024-04-01T07:31:46.152Z,979.33
2024-04-01T07:32:47.505Z,979.33
2024-04-01T07:33:48.863Z,979.39
2024-04-01T07:34:50.321Z,979.41
2024-04-01T07:35:51.631Z,979.33
2024-04-01T07:36:53.191Z,979.27
2024-04-01T07:37:54.540Z,979.20
2024-04-01T07:38:55.877Z,979.24
2024-04-01T07:39:57.292Z,979.25
2024-04-01T07:40:58.646Z,979.25
2024-04-01T07:41:59.989Z,979.20
2024-04-01T07:43:01.347Z,979.21
2024-04-01T07:44:02.660Z,979.20
2024-04-01T07:45:04.013Z,979.07
2024-04-01T07:46:15.964Z,979.07
2024-04-01T07:47:07.451Z,979.02
2024-04-01T07:48:08.786Z,979.09
2024-04-01T07:49:10.142Z,979.06
2024-04-01T07:50:11.499Z,979.04
2024-04-01T07:51:12.857Z,979.02
2024-04-01T07:52:14.200Z,978.98
2024-04-01T07:53:16.856Z,978.91
2024-04-01T07:54:17.629Z,978.86
2024-04-01T07:55:18.980Z,978.77
2024-04-01T07:56:20.346Z,978.76
2024-04-01T07:57:21.714Z,978.68
2024-04-01T07:58:23.079Z,978.63
2024-04-01T07:59:24.446Z,978.58
2024-04-01T08:00:25.844Z,978.52
2024-04-01T08:01:27.186Z,978.46
2024-04-01T08:02:28.686Z,978.48
2024-04-01T08:03:30.007Z,978.42
2024-04-01T08:04:31.360Z,978.41
2024-04-01T08:05:32.691Z,978.40
2024-04-01T08:06:34.050Z,978.37
2024-04-01T08:07:35.418Z,978.35
2024-04-01T08:08:36.760Z,978.41
2024-04-01T08:09:38.130Z,978.41
2024-04-01T08:10:39.522Z,978.39
2024-04-01T08:11:40.870Z,978.42
2024-04-01T08:12:42.249Z,978.43
2024-04-01T08:13:43.606Z,978.39
2024-04-01T08:14:45.003Z,978.36
2024-04-01T08:15:46.352Z,978.31
2024-04-01T08:16:47.736Z,978.31
2024-04-01T08:17:49.141Z,978.25
2024-04-01T08:18:50.466Z,978.27
2024-04-01T08:19:51.860Z,978.25
2024-04-01T08:20:55.628Z,978.29
2024-04-01T08:21:54.882Z,978.31
2024-04-01T08:22:56.266Z,978.36
2024-04-01T08:23:57.619Z,978.36
2024-04-01T08:24:58.964Z,978.41
2024-04-01T08:26:00.347Z,978.44
2024-04-01T08:27:01.700Z,978.48
2024-04-01T08:28:03.071Z,978.54
2024-04-01T08:29:04.431Z,978.54
2024-04-01T08:30:05.801Z,978.61
2024-04-01T08:31:07.128Z,978.66
2024-04-01T08:32:08.482Z,978.64
2024-04-01T08:33:11.605Z,978.65
2024-04-01T08:34:11.958Z,978.56
2024-04-01T08:35:13.306Z,978.55
2024-04-01T08:36:14.645Z,978.55
2024-04-01T08:37:16.027Z,978.54
2024-04-01T08:38:17.376Z,978.57
2024-04-01T08:39:18.736Z,978.59
2024-04-01T08:40:20.100Z,978.61
2024-04-01T08:41:21.442Z,978.58
2024-04-01T08:42:22.786Z,978.53
2024-04-01T08:43:24.160Z,978.50
2024-04-01T08:44:25.516Z,978.46
2024-04-01T08:45:26.876Z,978.44
2024-04-01T08:46:28.244Z,978.38
2024-04-01T08:47:29.620Z,978.46
2024-04-01T08:48:30.972Z,978.43
2024-04-01T08:49:32.311Z,978.44
2024-04-01T08:50:33.656Z,978.38
2024-04-01T08:51:35.042Z,978.33
2024-04-01T08:52:36.397Z,978.31
2024-04-01T08:53:37.759Z,978.28
2024-04-01T08:54:39.122Z,978.32
2024-04-01T08:55:40.489Z,978.34
2024-04-01T08:56:44.288Z,978.36
2024-04-01T08:57:43.544Z,978.43
2024-04-01T08:58:44.922Z,978.47
2024-04-01T08:59:46.279Z,978.53
2024-04-01T09:00:47.639Z,978.57
2024-04-01T09:01:49.007Z,978.60
2024-04-01T09:02:50.379Z,978.63
2024-04-01T09:03:51.747Z,978.63
2024-04-01T09:04:53.102Z,978.61
2024-04-01T09:05:54.476Z,978.56
2024-04-01T09:06:55.850Z,978.45
2024-04-01T09:07:57.199Z,978.35
2024-04-01T09:08:58.570Z,978.38
2024-04-01T09:09:59.916Z,978.50
2024-04-01T09:11:01.254Z,978.54
2024-04-01T09:12:02.594Z,978.47
2024-04-01T09:13:03.969Z,978.38
2024-04-01T09:14:05.357Z,978.22
2024-04-01T09:15:06.728Z,978.13
2024-04-01T09:16:08.078Z,978.07
2024-04-01T09:17:09.438Z,977.97
2024-04-01T09:18:10.790Z,977.79
2024-04-01T09:19:12.159Z,977.64
2024-04-01T09:20:13.503Z,977.71
2024-04-01T09:21:14.874Z,977.90
2024-04-01T09:22:16.220Z,977.98
2024-04-01T09:23:17.564Z,977.85
2024-04-01T09:24:18.960Z,977.69
2024-04-01T09:25:21.146Z,977.56
2024-04-01T09:26:22.502Z,977.55
2024-04-01T09:27:23.834Z,977.60
2024-04-01T09:28:25.185Z,977.50
2024-04-01T09:29:26.545Z,977.35
2024-04-01T09:30:27.896Z,977.32
2024-04-01T09:31:29.272Z,977.56
2024-04-01T09:32:30.636Z,977.89
2024-04-01T09:33:32.009Z,977.98
2024-04-01T09:34:33.418Z,977.77
2024-04-01T09:35:34.769Z,977.53
2024-04-01T09:36:36.112Z,977.44
2024-04-01T09:37:37.478Z,977.57
2024-04-01T09:38:38.811Z,977.67
2024-04-01T09:39:40.190Z,977.71
2024-04-01T09:40:41.557Z,977.66
2024-04-01T09:41:42.905Z,977.77
2024-04-01T09:42:44.250Z,977.88
2024-04-01T09:43:51.631Z,977.94
2024-04-01T09:44:47.490Z,977.92
2024-04-01T09:45:48.840Z,977.83
2024-04-01T09:46:50.201Z,977.78
2024-04-01T09:47:51.572Z,977.80
2024-04-01T09:48:52.934Z,977.76
2024-04-01T09:49:54.305Z,977.82
2024-04-01T09:50:55.655Z,977.85
2024-04-01T09:51:58.948Z,977.95
2024-04-01T09:52:59.161Z,977.99
2024-04-01T09:54:00.501Z,977.97
2024-04-01T09:55:01.907Z,978.02
2024-04-01T09:56:03.242Z,978.06
2024-04-01T09:57:04.614Z,978.02
2024-04-01T09:58:05.990Z,978.19
2024-04-01T09:59:07.341Z,978.23
2024-04-01T10:00:08.728Z,978.20
2024-04-01T10:01:10.081Z,978.17
2024-04-01T10:02:11.453Z,978.20
2024-04-01T10:03:12.840Z,978.29
2024-04-01T10:04:14.204Z,978.29
2024-04-01T10:05:15.562Z,978.35
2024-04-01T10:06:16.907Z,978.43
2024-04-01T10:07:18.245Z,978.58
2024-04-01T10:08:19.592Z,978.77
2024-04-01T10:09:20.932Z,978.75
2024-04-01T10:10:22.300Z,978.70
2024-04-01T10:11:23.687Z,978.83
2024-04-01T10:12:25.034Z,978.91
2024-04-01T10:13:26.379Z,978.98
2024-04-01T10:14:27.729Z,978.82
2024-04-01T10:15:29.096Z,978.70
2024-04-01T10:16:30.465Z,978.61
2024-04-01T10:17:31.834Z,978.58
2024-04-01T10:18:33.162Z,978.57
2024-04-01T10:19:34.509Z,978.65
2024-04-01T10:20:35.881Z,978.71
2024-04-01T10:21:37.250Z,978.70
2024-04-01T10:22:38.638Z,978.70
2024-04-01T10:23:39.968Z,978.70
2024-04-01T10:24:41.334Z,978.69
2024-04-01T10:25:42.770Z,978.70
2024-04-01T10:26:44.075Z,978.78
2024-04-01T10:27:45.453Z,978.82
2024-04-01T10:28:46.808Z,978.77
2024-04-01T10:29:48.139Z,978.85
2024-04-01T10:30:49.504Z,978.83
2024-04-01T10:31:50.876Z,978.81
2024-04-01T10:32:52.259Z,978.82
2024-04-01T10:33:53.618Z,978.76
2024-04-01T10:35:03.937Z,978.81
2024-04-01T10:35:56.857Z,978.88
2024-04-01T10:36:58.187Z,978.77
2024-04-01T10:37:59.554Z,978.78
2024-04-01T10:39:00.875Z,978.79
2024-04-01T10:40:02.234Z,978.83
2024-04-01T10:41:03.615Z,978.86
2024-04-01T10:42:04.977Z,978.90
2024-04-01T10:43:06.310Z,978.87
2024-04-01T10:44:07.689Z,978.88
2024-04-01T10:45:09.055Z,978.93
2024-04-01T10:46:10.431Z,979.01
2024-04-01T10:47:11.781Z,978.98
2024-04-01T10:48:13.139Z,978.93
2024-04-01T10:49:14.489Z,978.84
2024-04-01T10:50:15.860Z,978.90
2024-04-01T10:51:17.253Z,978.83
2024-04-01T10:52:18.602Z,978.78
2024-04-01T10:53:22.683Z,978.75
2024-04-01T10:54:21.978Z,978.74
2024-04-01T10:55:23.324Z,978.69
2024-04-01T10:56:24.657Z,978.70
2024-04-01T10:57:26.019Z,978.71
2024-04-01T10:58:27.350Z,978.76
2024-04-01T10:59:28.714Z,978.73
2024-04-01T11:00:30.074Z,978.85
2024-04-01T11:01:31.445Z,978.90
2024-04-01T11:02:32.807Z,978.90
2024-04-01T11:03:34.134Z,978.92
2024-04-01T11:04:35.478Z,978.90
2024-04-01T11:05:36.819Z,978.87
2024-04-01T11:06:38.192Z,978.84
2024-04-01T11:07:39.575Z,978.82
2024-04-01T11:08:40.935Z,978.80
2024-04-01T11:09:42.286Z,978.65
2024-04-01T11:10:43.684Z,978.52
2024-04-01T11:11:45.031Z,978.46
2024-04-01T11:12:46.380Z,978.46
2024-04-01T11:13:47.731Z,978.46
2024-04-01T11:14:49.090Z,978.55
2024-04-01T11:15:50.451Z,978.46
2024-04-01T11:16:51.820Z,978.36
2024-04-01T11:17:53.175Z,978.46
2024-04-01T11:18:54.512Z,978.47
2024-04-01T11:19:55.863Z,978.53
2024-04-01T11:20:57.228Z,978.65
2024-04-01T11:21:58.604Z,978.69
2024-04-01T11:22:59.964Z,978.66
2024-04-01T11:24:01.341Z,978.62
2024-04-01T11:25:02.689Z,978.63
2024-04-01T11:26:04.082Z,978.72
2024-04-01T11:27:05.428Z,978.78
2024-04-01T11:28:06.791Z,978.78
2024-04-01T11:29:08.142Z,978.84
2024-04-01T11:30:09.505Z,978.85
2024-04-01T11:31:10.858Z,978.86
2024-04-01T11:32:12.245Z,978.91
2024-04-01T11:33:15.459Z,978.82
2024-04-01T11:34:14.867Z,978.79
2024-04-01T11:35:16.215Z,978.66
2024-04-01T11:36:17.607Z,978.58
2024-04-01T11:37:18.949Z,978.49
2024-04-01T11:38:20.294Z,978.53
2024-04-01T11:39:21.651Z,978.55
2024-04-01T11:40:23.015Z,978.66
2024-04-01T11:41:24.430Z,978.64
2024-04-01T11:42:25.812Z,978.61
2024-04-01T11:43:27.152Z,978.61
2024-04-01T11:44:30.693Z,978.66
2024-04-01T11:45:30.339Z,978.65
2024-04-01T11:46:31.705Z,978.65
2024-04-01T11:47:33.077Z,978.70
2024-04-01T11:48:34.440Z,978.67
2024-04-01T11:49:35.789Z,978.63
2024-04-01T11:50:37.147Z,978.74
2024-04-01T11:51:38.493Z,978.75
2024-04-01T11:52:39.860Z,978.88
2024-04-01T11:53:41.224Z,978.94
2024-04-01T11:54:42.584Z,979.00
2024-04-01T11:55:43.949Z,979.01
2024-04-01T11:56:45.297Z,979.05
2024-04-01T11:57:46.694Z,979.03
2024-04-01T11:58:48.044Z,979.03
2024-04-01T11:59:49.532Z,979.03
2024-04-01T12:00:50.887Z,978.98
2024-04-01T12:01:52.249Z,978.86
2024-04-01T12:02:53.619Z,978.85
2024-04-01T12:03:54.965Z,978.76
2024-04-01T12:04:56.331Z,978.66
2024-04-01T12:05:57.667Z,978.59
2024-04-01T12:06:59.046Z,978.51
2024-04-01T12:08:00.397Z,978.60
2024-04-01T12:09:01.744Z,978.62
2024-04-01T12:10:03.108Z,978.63
2024-04-01T12:11:04.432Z,978.66
2024-04-01T12:12:05.806Z,978.61
2024-04-01T12:13:07.183Z,978.70
2024-04-01T12:14:08.561Z,978.67
2024-04-01T12:15:09.905Z,978.61
2024-04-01T12:16:11.252Z,978.62
2024-04-01T12:17:12.642Z,978.80
2024-04-01T12:18:13.994Z,978.93
2024-04-01T12:19:15.365Z,978.99
2024-04-01T12:20:16.746Z,978.91
2024-04-01T12:21:18.096Z,979.01
2024-04-01T12:22:19.470Z,979.00
2024-04-01T12:23:20.845Z,978.99
2024-04-01T12:24:22.191Z,979.06
2024-04-01T12:25:23.555Z,979.12
2024-04-01T12:26:24.920Z,979.11
2024-04-01T12:27:26.265Z,979.13
2024-04-01T12:28:27.694Z,979.11
2024-04-01T12:29:29.159Z,979.21
2024-04-01T12:30:31.494Z,979.23
2024-04-01T12:31:31.693Z,979.18
2024-04-01T12:32:33.031Z,979.25
2024-04-01T12:33:34.394Z,979.22
2024-04-01T12:34:35.748Z,979.18
2024-04-01T12:35:37.108Z,979.29
2024-04-01T12:36:38.484Z,979.34
2024-04-01T12:37:39.857Z,979.36
2024-04-01T12:38:41.190Z,979.46
2024-04-01T12:39:42.515Z,979.48
2024-04-01T12:40:43.884Z,979.62
2024-04-01T12:41:47.965Z,979.85
2024-04-01T12:42:46.424Z,980.09
2024-04-01T12:43:47.830Z,980.03
2024-04-01T12:44:49.186Z,980.25
2024-04-01T12:45:51.175Z,980.24
2024-04-01T12:46:52.504Z,980.40
2024-04-01T12:47:53.862Z,980.29
2024-04-01T12:48:55.229Z,980.45
2024-04-01T12:49:56.564Z,980.48
2024-04-01T12:50:57.943Z,980.53
2024-04-01T12:51:59.284Z,980.63
2024-04-01T12:53:10.229Z,980.66
2024-04-01T12:54:05.208Z,980.76
2024-04-01T12:55:04.687Z,980.84
2024-04-01T12:56:06.027Z,980.98
2024-04-01T12:57:07.366Z,981.00
2024-04-01T12:58:08.722Z,981.05
2024-04-01T12:59:10.089Z,981.03
2024-04-01T13:00:11.431Z,981.09
2024-04-01T13:01:12.810Z,981.08
2024-04-01T13:02:14.182Z,981.18
2024-04-01T13:03:15.551Z,981.26
2024-04-01T13:04:16.948Z,981.24
2024-04-01T13:05:18.284Z,981.27
2024-04-01T13:06:19.660Z,981.28
2024-04-01T13:07:21.023Z,981.31
2024-04-01T13:08:22.382Z,981.30
2024-04-01T13:09:23.745Z,981.36
2024-04-01T13:10:25.060Z,981.39
2024-04-01T13:11:26.411Z,981.44
2024-04-01T13:12:27.747Z,981.46
2024-04-01T13:13:29.164Z,981.40
2024-04-01T13:14:30.593Z,981.43
2024-04-01T13:15:31.941Z,981.51
2024-04-01T13:16:33.289Z,981.50
2024-04-01T13:17:40.975Z,981.50
2024-04-01T13:18:36.495Z,981.50
2024-04-01T13:19:37.897Z,981.45
2024-04-01T13:20:39.240Z,981.39
2024-04-01T13:21:40.590Z,981.41
2024-04-01T13:22:42.041Z,981.46
2024-04-01T13:23:43.374Z,981.44
2024-04-01T13:24:44.774Z,981.45
2024-04-01T13:25:46.132Z,981.46
2024-04-01T13:26:47.455Z,981.49
2024-04-01T13:27:48.812Z,981.59
2024-04-01T13:28:50.158Z,981.57
2024-04-01T13:29:51.552Z,981.62
2024-04-01T13:30:52.968Z,981.54
2024-04-01T13:31:54.281Z,981.56
2024-04-01T13:32:55.636Z,981.65
2024-04-01T13:33:56.974Z,981.72
2024-04-01T13:34:58.336Z,981.72
2024-04-01T13:35:59.730Z,981.82
2024-04-01T13:37:01.079Z,981.83
2024-04-01T13:38:02.419Z,981.82
2024-04-01T13:39:03.743Z,981.89
2024-04-01T13:40:05.089Z,981.85
2024-04-01T13:41:06.454Z,981.82
2024-04-01T13:42:07.809Z,981.90
2024-04-01T13:43:09.152Z,981.89
2024-04-01T13:44:10.507Z,981.90
2024-04-01T13:45:11.891Z,981.93
2024-04-01T13:46:13.271Z,981.95
2024-04-01T13:47:14.601Z,981.82
2024-04-01T13:48:15.968Z,982.03
2024-04-01T13:49:17.301Z,982.04
2024-04-01T13:50:18.663Z,982.01
2024-04-01T13:51:20.016Z,982.10
2024-04-01T13:52:21.364Z,982.04
2024-04-01T13:53:22.724Z,982.13
2024-04-01T13:54:24.063Z,982.11
2024-04-01T13:55:25.459Z,982.18
2024-04-01T13:56:26.787Z,982.17
2024-04-01T13:57:28.177Z,982.10
2024-04-01T13:58:29.502Z,982.02
2024-04-01T13:59:30.863Z,982.15
2024-04-01T14:00:32.265Z,982.14
2024-04-01T14:01:33.607Z,982.22
2024-04-01T14:02:35.526Z,982.33
2024-04-01T14:03:36.841Z,982.36
2024-04-01T14:04:38.207Z,982.38
2024-04-01T14:05:39.604Z,982.45
2024-04-01T14:06:40.957Z,982.53
2024-04-01T14:07:42.320Z,982.63
2024-04-01T14:08:43.683Z,982.56
2024-04-01T14:09:45.024Z,982.67
2024-04-01T14:10:46.428Z,982.68
2024-04-01T14:11:47.770Z,982.62
2024-04-01T14:12:49.118Z,982.60
2024-04-01T14:13:50.506Z,982.56
2024-04-01T14:14:51.829Z,982.58
2024-04-01T14:15:53.207Z,982.70
2024-04-01T14:16:54.550Z,982.68
2024-04-01T14:17:55.898Z,982.61
2024-04-01T14:18:57.265Z,982.68
2024-04-01T14:19:58.616Z,982.67
2024-04-01T14:20:59.996Z,982.67
2024-04-01T14:22:01.354Z,982.75
2024-04-01T14:23:02.715Z,982.76
2024-04-01T14:24:04.072Z,982.74
2024-04-01T14:25:05.411Z,982.81
2024-04-01T14:26:06.778Z,982.80
2024-04-01T14:27:08.112Z,982.80
2024-04-01T14:28:09.453Z,982.73
2024-04-01T14:29:10.813Z,982.74
2024-04-01T14:30:12.170Z,982.75
2024-04-01T14:31:13.535Z,982.73
2024-04-01T14:32:14.921Z,982.76
2024-04-01T14:33:16.276Z,982.69
2024-04-01T14:34:17.614Z,982.78
2024-04-01T14:35:18.985Z,982.71
2024-04-01T14:36:20.355Z,982.74
2024-04-01T14:37:23.281Z,982.76
2024-04-01T14:38:23.569Z,982.82
2024-04-01T14:39:24.939Z,982.81
2024-04-01T14:40:26.294Z,982.84
2024-04-01T14:41:27.668Z,982.70
2024-04-01T14:42:29.032Z,982.69
2024-04-01T14:43:30.404Z,982.89
2024-04-01T14:44:31.749Z,982.91
2024-04-01T14:45:33.102Z,982.86
2024-04-01T14:46:34.449Z,982.90
2024-04-01T14:47:35.826Z,982.87
2024-04-01T14:48:37.194Z,982.87
2024-04-01T14:49:38.576Z,982.74
2024-04-01T14:50:39.941Z,982.81
2024-04-01T14:51:41.316Z,982.71
2024-04-01T14:52:42.669Z,982.78
2024-04-01T14:53:44.019Z,982.75
2024-04-01T14:54:45.372Z,982.80
2024-04-01T14:55:46.739Z,982.83
2024-04-01T14:56:48.088Z,982.89
2024-04-01T14:57:49.439Z,982.95
2024-04-01T14:58:50.873Z,982.95
2024-04-01T14:59:52.187Z,982.97
2024-04-01T15:00:53.535Z,983.04
2024-04-01T15:01:54.918Z,982.96
2024-04-01T15:02:56.269Z,982.91
2024-04-01T15:03:57.618Z,983.08
2024-04-01T15:04:58.975Z,983.05
2024-04-01T15:06:00.324Z,983.10
2024-04-01T15:07:01.735Z,983.07
2024-04-01T15:08:03.088Z,983.18
2024-04-01T15:09:04.443Z,983.21
2024-04-01T15:10:05.807Z,983.22
2024-04-01T15:11:07.163Z,983.21
2024-04-01T15:12:08.545Z,983.13
2024-04-01T15:13:09.950Z,983.18
2024-04-01T15:14:11.299Z,983.27
2024-04-01T15:15:12.683Z,983.33
2024-04-01T15:16:14.014Z,983.31
2024-04-01T15:17:15.391Z,983.25
2024-04-01T15:18:16.735Z,983.31
2024-04-01T15:19:18.079Z,983.32
2024-04-01T15:20:19.431Z,983.36
2024-04-01T15:21:20.793Z,983.45
2024-04-01T15:22:22.158Z,983.49
2024-04-01T15:23:23.526Z,983.40
2024-04-01T15:24:24.877Z,983.48
2024-04-01T15:25:27.457Z,983.47
2024-04-01T15:26:27.756Z,983.45
2024-04-01T15:27:29.150Z,983.43
2024-04-01T15:28:30.514Z,983.45
2024-04-01T15:29:31.871Z,983.52
2024-04-01T15:30:33.231Z,983.52
2024-04-01T15:31:34.599Z,983.54
2024-04-01T15:32:35.977Z,983.53
2024-04-01T15:33:37.354Z,983.57
2024-04-01T15:34:38.696Z,983.51
2024-04-01T15:35:40.052Z,983.54
2024-04-01T15:36:41.427Z,983.58
2024-04-01T15:37:42.829Z,983.58
2024-04-01T15:38:44.197Z,983.57
2024-04-01T15:39:45.570Z,983.52
2024-04-01T15:40:46.927Z,983.57
2024-04-01T15:41:48.294Z,983.54
2024-04-01T15:42:49.668Z,983.50
2024-04-01T15:43:51.070Z,983.51
2024-04-01T15:44:52.394Z,983.51
2024-04-01T15:45:53.764Z,983.49
2024-04-01T15:46:55.095Z,983.52
2024-04-01T15:47:56.458Z,983.50
2024-04-01T15:48:57.806Z,983.46
2024-04-01T15:49:59.162Z,983.36
2024-04-01T15:51:00.517Z,983.40
2024-04-01T15:52:01.894Z,983.38
2024-04-01T15:53:03.252Z,983.40
2024-04-01T15:54:04.619Z,983.40
2024-04-01T15:55:05.970Z,983.44
2024-04-01T15:56:07.325Z,983.35
2024-04-01T15:57:08.701Z,983.47
2024-04-01T15:58:10.075Z,983.43
2024-04-01T15:59:11.426Z,983.44
2024-04-01T16:00:12.772Z,983.51
2024-04-01T16:01:14.088Z,983.44
2024-04-01T16:02:15.445Z,983.47
2024-04-01T16:03:16.823Z,983.52
2024-04-01T16:04:18.198Z,983.49
2024-04-01T16:05:19.553Z,983.62
2024-04-01T16:06:20.898Z,983.55
2024-04-01T16:07:22.254Z,983.63
2024-04-01T16:08:23.626Z,983.63
2024-04-01T16:09:24.968Z,983.59
2024-04-01T16:10:26.307Z,983.63
2024-04-01T16:11:27.667Z,983.63
2024-04-01T16:12:29.037Z,983.54
2024-04-01T16:13:30.403Z,983.57
2024-04-01T16:14:31.777Z,983.59
2024-04-01T16:15:33.106Z,983.62
2024-04-01T16:16:34.449Z,983.71
2024-04-01T16:17:35.822Z,983.68
2024-04-01T16:18:37.189Z,983.73
2024-04-01T16:19:38.540Z,983.73
2024-04-01T16:20:39.901Z,983.72
2024-04-01T16:21:41.245Z,983.93
2024-04-01T16:22:42.621Z,983.98
2024-04-01T16:23:44.011Z,983.94
2024-04-01T16:24:45.468Z,984.08
2024-04-01T16:25:46.884Z,984.09
2024-04-01T16:26:48.321Z,984.22
2024-04-01T16:27:52.495Z,984.25
2024-04-01T16:28:50.863Z,984.30
2024-04-01T16:29:52.167Z,984.27
2024-04-01T16:30:53.555Z,984.38
2024-04-01T16:31:54.943Z,984.43
2024-04-01T16:32:56.275Z,984.45
2024-04-01T16:33:57.676Z,984.53
2024-04-01T16:34:59.023Z,984.58
2024-04-01T16:36:00.462Z,984.57
2024-04-01T16:37:01.776Z,984.54
2024-04-01T16:38:03.134Z,984.56
2024-04-01T16:39:04.492Z,984.51
2024-04-01T16:40:05.914Z,984.58
2024-04-01T16:41:08.214Z,984.62
2024-04-01T16:42:09.355Z,984.58
2024-04-01T16:43:10.705Z,984.60
2024-04-01T16:44:12.074Z,984.60
2024-04-01T16:45:13.478Z,984.53
2024-04-01T16:46:14.825Z,984.47
2024-04-01T16:47:17.095Z,984.47
2024-04-01T16:48:17.349Z,984.46
2024-04-01T16:49:18.719Z,984.46
2024-04-01T16:50:20.086Z,984.44
2024-04-01T16:51:21.423Z,984.42
2024-04-01T16:52:22.793Z,984.45
2024-04-01T16:53:24.162Z,984.44
2024-04-01T16:54:25.539Z,984.50
2024-04-01T16:55:26.888Z,984.50
2024-04-01T16:56:28.227Z,984.51
2024-04-01T16:57:29.564Z,984.55
2024-04-01T16:58:30.927Z,984.62
2024-04-01T16:59:35.707Z,984.60
2024-04-01T17:00:33.926Z,984.63
2024-04-01T17:01:35.228Z,984.67
2024-04-01T17:02:36.657Z,984.80
2024-04-01T17:03:37.988Z,984.73
2024-04-01T17:04:39.373Z,984.79
2024-04-01T17:05:40.721Z,984.70
2024-04-01T17:06:42.071Z,984.81
2024-04-01T17:07:43.431Z,984.83
2024-04-01T17:08:44.771Z,984.84
2024-04-01T17:09:46.229Z,984.85
2024-04-01T17:10:47.578Z,984.89
2024-04-01T17:11:48.948Z,984.87
2024-04-01T17:12:50.296Z,984.92
2024-04-01T17:13:51.700Z,985.03
2024-04-01T17:14:53.068Z,985.08
2024-04-01T17:15:54.445Z,985.10
2024-04-01T17:16:55.845Z,985.14
2024-04-01T17:17:57.154Z,985.15
2024-04-01T17:18:58.506Z,985.16
2024-04-01T17:19:59.860Z,985.23
2024-04-01T17:21:01.214Z,985.36
2024-04-01T17:22:02.596Z,985.34
2024-04-01T17:23:03.961Z,985.40
2024-04-01T17:24:05.323Z,985.43
2024-04-01T17:25:06.694Z,985.46
2024-04-01T17:26:08.035Z,985.45
2024-04-01T17:27:09.379Z,985.46
2024-04-01T17:28:10.731Z,985.46
2024-04-01T17:29:12.097Z,985.47
2024-04-01T17:30:13.483Z,985.41
2024-04-01T17:31:14.830Z,985.46